BSO weather

Basco Airport
Basco, Batanes Province, Philippines

Public forecast

Using degrees Celsius for public forecast. Weather courtesy of forecast.io.

METAR (pilot weather report)

Closest report is Hong Kong International Airport, 464.4 nm (860.1 km) WNW. Retrieved 2019/03/26 00:30 UTC (1 hour ago):

VHHH 260030Z 04005KT 8000 FEW014 23/19 Q1019 NOSIG

TAF (pilot weather forecast)

Forecast is more than 12 hours old.

Closest forecast is Hong Kong International Airport, 464.4 nm (860.1 km) WNW. Retrieved 2019/03/25 00:22 UTC (1 day ago):

TAF VHHH 252300Z 2600/2706 03010KT 7000 FEW020 TX25/2606Z TX26/2706Z TN21/2622Z TEMPO 2600/2602 4000 BR TEMPO 2602/2605 30010KT BECMG 2605/2607 09010KT